Terminal Aerodrome Forecast
Issued by NWS Twin Cities, MN

Home | Current Version | Previous Version | Graphics & Text | Print | Product List | Glossary On
Versions: 1 2 3 4 5 6 7 8 9 10 11 12 13 14
737
FTUS43 KMPX 281357 AAA
TAFSTC
TAF AMD
KSTC 281357Z 2814/2912 17009KT P6SM -SHRA BKN007 OVC060
     FM281600 19012G18KT P6SM BKN024
     FM282000 23015G23KT P6SM VCTS BKN040CB
     FM282300 29013G21KT P6SM BKN050
     FM290300 27006KT P6SM SKC=

USA.gov is the U.S. government's official web portal to all federal, state and local government web resources and services.